createdAt,value
2018-12-19T00:02:21.511Z,15.18
2018-12-19T00:04:50.092Z,15.55
2018-12-19T00:07:18.623Z,14.58
2018-12-19T00:09:47.135Z,14.85
2018-12-19T00:12:15.696Z,16.62
2018-12-19T00:14:44.238Z,16.85
2018-12-19T00:17:12.826Z,14.10
2018-12-19T00:19:41.349Z,15.68
2018-12-19T00:22:09.832Z,15.18
2018-12-19T00:24:38.395Z,15.60
2018-12-19T00:27:06.914Z,16.10
2018-12-19T00:29:35.449Z,15.28
2018-12-19T00:32:04.035Z,15.20
2018-12-19T00:34:32.589Z,14.65
2018-12-19T00:37:01.158Z,14.38
2018-12-19T00:39:29.689Z,14.87
2018-12-19T00:41:58.285Z,16.70
2018-12-19T00:44:26.834Z,14.63
2018-12-19T00:46:55.393Z,15.68
2018-12-19T00:49:23.953Z,16.77
2018-12-19T00:51:52.585Z,16.05
2018-12-19T00:54:21.423Z,15.88
2018-12-19T00:56:49.987Z,16.42
2018-12-19T00:59:18.489Z,13.88
2018-12-19T01:01:47.059Z,14.80
2018-12-19T01:04:15.623Z,15.40
2018-12-19T01:06:44.161Z,15.72
2018-12-19T01:09:15.940Z,15.20
2018-12-19T01:11:43.310Z,15.43
2018-12-19T01:14:11.862Z,13.43
2018-12-19T01:16:40.435Z,15.30
2018-12-19T01:19:08.985Z,14.55
2018-12-19T01:21:37.651Z,14.83
2018-12-19T01:24:06.185Z,14.70
2018-12-19T01:26:34.715Z,15.83
2018-12-19T01:29:03.364Z,15.45
2018-12-19T01:31:31.945Z,14.58
2018-12-19T01:34:00.482Z,13.70
2018-12-19T01:36:29.043Z,15.40
2018-12-19T01:38:57.606Z,14.10
2018-12-19T01:41:26.172Z,14.18
2018-12-19T01:43:54.754Z,15.13
2018-12-19T01:46:23.289Z,14.10
2018-12-19T01:48:51.810Z,14.13
2018-12-19T01:51:20.506Z,14.20
2018-12-19T01:53:49.412Z,13.08
2018-12-19T01:56:17.964Z,15.25
2018-12-19T01:58:46.529Z,15.23
2018-12-19T02:01:15.085Z,15.20
2018-12-19T02:03:43.616Z,17.07
2018-12-19T02:06:12.211Z,16.80
2018-12-19T02:08:40.783Z,17.20
2018-12-19T02:11:09.391Z,15.38
2018-12-19T02:13:39.900Z,15.55
2018-12-19T02:16:08.454Z,14.85
2018-12-19T02:18:37.003Z,16.55
2018-12-19T02:21:05.532Z,16.30
2018-12-19T02:23:34.227Z,15.68
2018-12-19T02:26:02.749Z,15.13
2018-12-19T02:28:31.314Z,16.62
2018-12-19T02:30:59.874Z,15.55
2018-12-19T02:33:28.449Z,16.05
2018-12-19T02:35:57.085Z,14.95
2018-12-19T02:38:25.585Z,16.00
2018-12-19T02:40:54.161Z,17.00
2018-12-19T02:43:22.721Z,15.40
2018-12-19T02:45:51.265Z,18.20
2018-12-19T02:48:19.774Z,16.65
2018-12-19T02:50:48.311Z,15.65
2018-12-19T02:53:16.846Z,16.32
2018-12-19T02:55:45.355Z,18.10
2018-12-19T02:58:13.870Z,15.83
2018-12-19T03:00:42.490Z,16.65
2018-12-19T03:03:11.034Z,16.85
2018-12-19T03:05:39.640Z,17.15
2018-12-19T03:08:08.213Z,15.45
2018-12-19T03:10:36.843Z,14.85
2018-12-19T03:13:05.412Z,16.25
2018-12-19T03:15:34.076Z,15.05
2018-12-19T03:18:02.599Z,16.15
2018-12-19T03:20:31.228Z,15.88
2018-12-19T03:22:59.778Z,14.53
2018-12-19T03:25:28.352Z,15.68
2018-12-19T03:27:56.948Z,16.12
2018-12-19T03:30:25.541Z,15.80
2018-12-19T03:32:54.110Z,16.20
2018-12-19T03:35:22.658Z,14.15
2018-12-19T03:37:51.173Z,17.07
2018-12-19T03:40:19.731Z,15.65
2018-12-19T03:42:48.275Z,15.10
2018-12-19T03:45:16.833Z,17.90
2018-12-19T03:47:45.402Z,15.68
2018-12-19T03:50:14.155Z,15.13
2018-12-19T03:52:42.668Z,16.37
2018-12-19T03:55:11.199Z,16.57
2018-12-19T03:57:39.808Z,18.23
2018-12-19T04:00:11.914Z,16.15
2018-12-19T04:02:40.463Z,17.70
2018-12-19T04:05:09.012Z,15.05
2018-12-19T04:07:37.539Z,15.03
2018-12-19T04:10:06.501Z,17.70
2018-12-19T04:12:35.067Z,16.40
2018-12-19T04:15:03.919Z,16.05
2018-12-19T04:17:32.520Z,18.35
2018-12-19T04:20:01.071Z,16.42
2018-12-19T04:22:29.807Z,17.85
2018-12-19T04:24:58.351Z,16.57
2018-12-19T04:27:26.967Z,15.35
2018-12-19T04:29:55.745Z,15.23
2018-12-19T04:32:24.455Z,17.73
2018-12-19T04:34:53.027Z,17.75
2018-12-19T04:37:21.547Z,18.87
2018-12-19T04:39:50.080Z,14.05
2018-12-19T04:42:18.620Z,15.83
2018-12-19T04:44:47.203Z,18.73
2018-12-19T04:47:15.730Z,17.45
2018-12-19T04:49:44.349Z,16.57
2018-12-19T04:52:12.970Z,16.67
2018-12-19T04:54:41.515Z,15.35
2018-12-19T04:57:10.046Z,17.98
2018-12-19T04:59:38.621Z,18.15
2018-12-19T05:02:07.190Z,17.77
2018-12-19T05:04:35.715Z,17.62
2018-12-19T05:07:04.246Z,15.93
2018-12-19T05:09:32.830Z,15.83
2018-12-19T05:12:01.395Z,14.25
2018-12-19T05:14:30.139Z,15.43
2018-12-19T05:16:58.685Z,14.58
2018-12-19T05:19:27.243Z,15.75
2018-12-19T05:21:55.817Z,16.70
2018-12-19T05:24:24.318Z,17.27
2018-12-19T05:26:52.858Z,17.65
2018-12-19T05:29:21.458Z,18.12
2018-12-19T05:31:50.044Z,22.37
2018-12-19T05:34:18.629Z,19.73
2018-12-19T05:36:47.176Z,21.25
2018-12-19T05:39:15.741Z,18.00
2018-12-19T05:41:44.329Z,20.17
2018-12-19T05:44:12.982Z,16.90
2018-12-19T05:46:41.657Z,16.27
2018-12-19T05:49:10.195Z,16.17
2018-12-19T05:51:38.895Z,18.73
2018-12-19T05:54:07.525Z,17.12
2018-12-19T05:56:36.066Z,16.75
2018-12-19T05:59:04.640Z,16.65
2018-12-19T06:01:33.210Z,16.93
2018-12-19T06:04:01.776Z,15.88
2018-12-19T06:06:30.321Z,16.00
2018-12-19T06:08:58.900Z,17.15
2018-12-19T06:11:27.563Z,18.17
2018-12-19T06:13:56.102Z,23.25
2018-12-19T06:16:24.844Z,18.00
2018-12-19T06:18:53.437Z,16.80
2018-12-19T06:21:22.045Z,17.32
2018-12-19T06:23:50.592Z,17.57
2018-12-19T06:26:19.143Z,17.35
2018-12-19T06:28:47.698Z,19.00
2018-12-19T06:31:16.325Z,19.75
2018-12-19T06:33:45.415Z,18.70
2018-12-19T06:36:14.015Z,18.95
2018-12-19T06:38:42.559Z,17.27
2018-12-19T06:41:11.065Z,17.98
2018-12-19T06:43:39.848Z,16.57
2018-12-19T06:46:08.690Z,17.20
2018-12-19T06:48:37.233Z,17.92
2018-12-19T06:51:05.750Z,16.90
2018-12-19T06:53:34.313Z,19.15
2018-12-19T06:56:02.904Z,15.83
2018-12-19T06:58:31.637Z,17.17
2018-12-19T07:01:00.188Z,17.43
2018-12-19T07:03:28.726Z,17.80
2018-12-19T07:05:57.416Z,17.50
2018-12-19T07:08:25.980Z,20.80
2018-12-19T07:10:54.536Z,19.53
2018-12-19T07:13:23.249Z,21.33
2018-12-19T07:15:51.894Z,21.07
2018-12-19T07:18:20.496Z,20.90
2018-12-19T07:20:49.216Z,19.63
2018-12-19T07:23:17.760Z,19.53
2018-12-19T07:25:46.342Z,18.80
2018-12-19T07:28:15.006Z,20.30
2018-12-19T07:30:43.590Z,21.30
2018-12-19T07:33:12.109Z,21.07
2018-12-19T07:35:40.726Z,20.10
2018-12-19T07:38:09.293Z,20.37
2018-12-19T07:40:37.866Z,21.60
2018-12-19T07:43:06.404Z,22.93
2018-12-19T07:45:35.004Z,23.10
2018-12-19T07:48:03.743Z,22.00
2018-12-19T07:50:32.339Z,21.10
2018-12-19T07:53:01.177Z,20.30
2018-12-19T07:55:33.326Z,19.57
2018-12-19T07:58:01.911Z,19.13
2018-12-19T08:00:30.501Z,19.70
2018-12-19T08:02:59.055Z,20.43
2018-12-19T08:05:27.652Z,18.97
2018-12-19T08:07:56.254Z,21.80
2018-12-19T08:10:24.885Z,20.90
2018-12-19T08:12:54.145Z,19.67
2018-12-19T08:15:22.695Z,19.57
2018-12-19T08:17:51.235Z,21.33
2018-12-19T08:20:19.793Z,19.57
2018-12-19T08:22:48.407Z,18.67
2018-12-19T08:25:17.062Z,20.40
2018-12-19T08:27:45.602Z,19.83
2018-12-19T08:30:14.292Z,21.20
2018-12-19T08:32:42.863Z,23.80
2018-12-19T08:35:11.405Z,21.30
2018-12-19T08:37:40.003Z,19.13
2018-12-19T08:40:08.668Z,22.53
2018-12-19T08:42:37.258Z,22.80
2018-12-19T08:45:06.210Z,20.80
2018-12-19T08:47:34.826Z,24.33
2018-12-19T08:50:03.527Z,23.97
2018-12-19T08:52:32.104Z,22.07
2018-12-19T08:55:00.665Z,17.97
2018-12-19T08:57:29.212Z,17.97
2018-12-19T08:59:57.777Z,17.47
2018-12-19T09:02:26.398Z,18.50
2018-12-19T09:04:54.964Z,18.90
2018-12-19T09:07:23.525Z,20.20
2018-12-19T09:09:52.065Z,19.27
2018-12-19T09:12:20.786Z,17.17
2018-12-19T09:14:49.314Z,17.13
2018-12-19T09:17:18.239Z,17.67
2018-12-19T09:19:47.312Z,16.87
2018-12-19T09:22:16.184Z,16.60
2018-12-19T09:24:44.681Z,16.53
2018-12-19T09:27:13.247Z,16.73
2018-12-19T09:29:41.877Z,17.53
2018-12-19T09:32:10.431Z,19.37
2018-12-19T09:34:39.021Z,17.63
2018-12-19T09:37:07.631Z,18.00
2018-12-19T09:39:36.214Z,18.07
2018-12-19T09:42:04.770Z,18.60
2018-12-19T09:44:33.340Z,20.03
2018-12-19T09:47:01.958Z,20.27
2018-12-19T09:49:30.551Z,19.00
2018-12-19T09:51:59.282Z,20.90
2018-12-19T09:54:27.842Z,21.47
2018-12-19T09:56:56.426Z,18.80
2018-12-19T09:59:24.937Z,23.00
2018-12-19T10:01:53.437Z,20.70
2018-12-19T10:04:22.003Z,21.00
2018-12-19T10:06:50.583Z,19.40
2018-12-19T10:09:19.278Z,18.77
2018-12-19T10:11:47.833Z,19.10
2018-12-19T10:14:16.354Z,19.03
2018-12-19T10:16:44.923Z,22.60
2018-12-19T10:19:13.625Z,20.47
2018-12-19T10:21:42.431Z,20.80
2018-12-19T10:24:10.936Z,21.87
2018-12-19T10:26:39.665Z,20.93
2018-12-19T10:29:08.385Z,20.13
2018-12-19T10:31:36.993Z,19.97
2018-12-19T10:34:05.616Z,21.53
2018-12-19T10:36:38.891Z,19.60
2018-12-19T10:39:12.667Z,19.83
2018-12-19T10:41:41.301Z,19.50
2018-12-19T10:44:10.192Z,18.10
2018-12-19T10:46:38.873Z,19.27
2018-12-19T10:49:07.415Z,21.20
2018-12-19T10:51:36.063Z,18.90
2018-12-19T10:54:04.665Z,20.83
2018-12-19T10:56:33.200Z,19.50
2018-12-19T10:59:01.715Z,19.37
2018-12-19T11:01:30.257Z,16.93
2018-12-19T11:03:58.854Z,19.33
2018-12-19T11:06:27.443Z,17.73
2018-12-19T11:08:56.009Z,18.60
2018-12-19T11:11:24.613Z,19.33
2018-12-19T11:13:53.177Z,19.23
2018-12-19T11:16:21.767Z,18.93
2018-12-19T11:18:50.309Z,19.77
2018-12-19T11:21:18.856Z,18.83
2018-12-19T11:23:47.395Z,18.23
2018-12-19T11:26:15.940Z,18.03
2018-12-19T11:28:44.497Z,16.90
2018-12-19T11:31:13.051Z,18.43
2018-12-19T11:33:41.584Z,18.83
2018-12-19T11:36:10.249Z,18.53
2018-12-19T11:38:38.891Z,17.70
2018-12-19T11:41:07.468Z,17.57
2018-12-19T11:43:36.015Z,17.07
2018-12-19T11:46:04.697Z,18.50
2018-12-19T11:48:33.260Z,19.07
2018-12-19T11:51:01.933Z,21.57
2018-12-19T11:53:30.500Z,18.03
2018-12-19T11:55:59.036Z,19.90
2018-12-19T11:58:27.633Z,20.17
2018-12-19T12:00:56.727Z,19.43
2018-12-19T12:03:25.924Z,17.97
2018-12-19T12:05:54.463Z,19.07
2018-12-19T12:08:23.020Z,19.33
2018-12-19T12:10:51.592Z,19.83
2018-12-19T12:13:20.134Z,19.37
2018-12-19T12:15:48.650Z,19.20
2018-12-19T12:18:17.159Z,17.67
2018-12-19T12:20:45.742Z,18.00
2018-12-19T12:23:14.337Z,20.47
2018-12-19T12:25:42.916Z,17.27
2018-12-19T12:28:11.478Z,17.93
2018-12-19T12:30:40.014Z,17.67
2018-12-19T12:33:08.531Z,18.43
2018-12-19T12:35:37.425Z,18.57
2018-12-19T12:38:06.013Z,19.07
2018-12-19T12:40:34.610Z,19.10
2018-12-19T12:43:03.189Z,16.90
2018-12-19T12:45:31.779Z,18.07
2018-12-19T12:48:00.343Z,17.47
2018-12-19T12:50:28.889Z,18.17
2018-12-19T12:52:57.473Z,17.10
2018-12-19T12:55:26.134Z,19.50
2018-12-19T12:57:54.724Z,19.47
2018-12-19T13:00:23.327Z,20.60
2018-12-19T13:02:51.948Z,18.77
2018-12-19T13:05:22.505Z,21.53
2018-12-19T13:07:51.003Z,18.13
2018-12-19T13:10:19.561Z,18.80
2018-12-19T13:12:48.144Z,18.77
2018-12-19T13:15:20.827Z,17.67
2018-12-19T13:17:49.519Z,18.10
2018-12-19T13:20:18.115Z,18.27
2018-12-19T13:22:46.809Z,19.00
2018-12-19T13:25:15.364Z,20.33
2018-12-19T13:27:43.953Z,20.00
2018-12-19T13:30:12.608Z,20.93
2018-12-19T13:32:41.167Z,20.53
2018-12-19T13:35:09.736Z,20.33
2018-12-19T13:37:38.255Z,19.47
2018-12-19T13:40:07.249Z,20.40
2018-12-19T13:42:35.796Z,20.17
2018-12-19T13:45:04.905Z,21.53
2018-12-19T13:47:33.535Z,19.63
2018-12-19T13:50:02.117Z,21.47
2018-12-19T13:52:30.649Z,21.03
2018-12-19T13:54:59.198Z,21.93
2018-12-19T13:57:28.388Z,21.23
2018-12-19T13:59:57.172Z,20.20
2018-12-19T14:02:25.790Z,20.07
2018-12-19T14:04:54.340Z,19.47
2018-12-19T14:07:22.911Z,17.57
2018-12-19T14:09:52.927Z,19.47
2018-12-19T14:12:21.752Z,18.93
2018-12-19T14:14:51.261Z,20.70
2018-12-19T14:17:19.777Z,21.57
2018-12-19T14:19:48.358Z,21.27
2018-12-19T14:22:17.052Z,22.20
2018-12-19T14:24:45.579Z,19.40
2018-12-19T14:27:14.113Z,19.60
2018-12-19T14:29:42.682Z,18.27
2018-12-19T14:32:11.325Z,17.10
2018-12-19T14:34:39.851Z,18.83
2018-12-19T14:37:08.464Z,19.70
2018-12-19T14:39:36.998Z,20.08
2018-12-19T14:42:05.587Z,18.77
2018-12-19T14:44:34.235Z,19.23
2018-12-19T14:47:03.134Z,20.37
2018-12-19T14:49:31.732Z,22.20
2018-12-19T14:52:00.307Z,20.60
2018-12-19T14:54:28.901Z,20.48
2018-12-19T14:56:57.518Z,19.17
2018-12-19T14:59:26.128Z,20.77
2018-12-19T15:01:54.638Z,19.95
2018-12-19T15:04:23.174Z,19.95
2018-12-19T15:06:51.947Z,20.52
2018-12-19T15:09:20.556Z,21.05
2018-12-19T15:11:49.232Z,20.35
2018-12-19T15:14:17.781Z,18.62
2018-12-19T15:16:46.375Z,19.05
2018-12-19T15:19:15.474Z,17.95
2018-12-19T15:21:44.251Z,18.98
2018-12-19T15:24:12.865Z,20.32
2018-12-19T15:26:41.427Z,20.35
2018-12-19T15:29:10.145Z,18.23
2018-12-19T15:31:38.782Z,20.17
2018-12-19T15:34:07.302Z,19.87
2018-12-19T15:36:36.140Z,19.90
2018-12-19T15:39:07.654Z,20.30
2018-12-19T15:41:36.605Z,21.25
2018-12-19T15:44:05.161Z,23.52
2018-12-19T15:46:33.912Z,20.25
2018-12-19T15:49:02.476Z,22.35
2018-12-19T15:51:30.999Z,24.07
2018-12-19T15:53:59.508Z,21.12
2018-12-19T15:56:28.200Z,18.85
2018-12-19T15:58:56.843Z,17.30
2018-12-19T16:01:25.676Z,19.07
2018-12-19T16:03:54.346Z,18.90
2018-12-19T16:06:23.051Z,18.98
2018-12-19T16:08:51.685Z,18.45
2018-12-19T16:11:20.251Z,17.70
2018-12-19T16:13:48.990Z,18.32
2018-12-19T16:16:17.897Z,17.95
2018-12-19T16:18:46.558Z,21.00
2018-12-19T16:21:15.271Z,20.17
2018-12-19T16:23:43.924Z,19.57
2018-12-19T16:26:12.630Z,19.27
2018-12-19T16:28:41.392Z,22.02
2018-12-19T16:31:10.147Z,18.92
2018-12-19T16:33:39.095Z,21.10
2018-12-19T16:36:08.002Z,20.68
2018-12-19T16:38:37.372Z,23.80
2018-12-19T16:41:06.499Z,21.02
2018-12-19T16:43:35.085Z,19.25
2018-12-19T16:46:03.730Z,22.75
2018-12-19T16:48:32.379Z,20.57
2018-12-19T16:51:01.627Z,22.42
2018-12-19T16:53:30.323Z,22.35
2018-12-19T16:55:58.878Z,22.60
2018-12-19T16:58:27.423Z,20.35
2018-12-19T17:00:55.977Z,25.08
2018-12-19T17:03:25.099Z,19.67
2018-12-19T17:05:53.820Z,20.85
2018-12-19T17:08:22.835Z,19.52
2018-12-19T17:10:51.693Z,20.35
2018-12-19T17:13:20.406Z,18.80
2018-12-19T17:15:49.410Z,20.05
2018-12-19T17:18:18.371Z,19.65
2018-12-19T17:20:47.289Z,21.23
2018-12-19T17:23:16.078Z,22.60
2018-12-19T17:25:44.713Z,21.48
2018-12-19T17:28:13.352Z,20.45
2018-12-19T17:30:42.314Z,19.42
2018-12-19T17:33:12.025Z,20.72
2018-12-19T17:35:40.599Z,19.67
2018-12-19T17:38:09.171Z,20.23
2018-12-19T17:40:37.932Z,19.55
2018-12-19T17:43:06.604Z,19.75
2018-12-19T17:45:35.418Z,19.57
2018-12-19T17:48:04.462Z,18.55
2018-12-19T17:50:33.198Z,17.65
2018-12-19T17:53:01.741Z,17.87
2018-12-19T17:55:31.017Z,18.12
2018-12-19T17:57:59.897Z,17.95
2018-12-19T18:00:28.609Z,17.67
2018-12-19T18:02:57.490Z,16.37
2018-12-19T18:05:26.355Z,20.08
2018-12-19T18:07:55.620Z,17.87
2018-12-19T18:10:24.543Z,17.95
2018-12-19T18:12:53.322Z,17.25
2018-12-19T18:15:21.999Z,19.50
2018-12-19T18:17:50.763Z,18.85
2018-12-19T18:20:19.606Z,20.00
2018-12-19T18:22:48.253Z,19.73
2018-12-19T18:25:17.077Z,19.57
2018-12-19T18:27:45.715Z,21.25
2018-12-19T18:30:14.603Z,20.72
2018-12-19T18:32:43.536Z,20.35
2018-12-19T18:35:12.482Z,20.62
2018-12-19T18:37:41.415Z,21.52
2018-12-19T18:40:10.346Z,21.82
2018-12-19T18:42:39.143Z,21.33
2018-12-19T18:45:11.831Z,20.88
2018-12-19T18:47:40.062Z,20.77
2018-12-19T18:50:09.067Z,22.25
2018-12-19T18:52:37.713Z,20.30
2018-12-19T18:55:07.330Z,21.55
2018-12-19T18:57:36.309Z,19.57
2018-12-19T19:00:16.232Z,18.48
2018-12-19T19:02:45.123Z,19.35
2018-12-19T19:05:14.123Z,19.23
2018-12-19T19:07:42.830Z,19.60
2018-12-19T19:10:11.451Z,20.05
2018-12-19T19:12:40.204Z,23.70
2018-12-19T19:15:08.803Z,22.52
2018-12-19T19:17:37.673Z,21.30
2018-12-19T19:20:06.647Z,20.72
2018-12-19T19:22:35.422Z,21.97
2018-12-19T19:25:05.121Z,19.05
2018-12-19T19:27:34.099Z,19.98
2018-12-19T19:30:10.943Z,19.35
2018-12-19T19:32:39.652Z,20.75
2018-12-19T19:35:08.636Z,19.25
2018-12-19T19:37:37.819Z,21.33
2018-12-19T19:40:08.425Z,21.30
2018-12-19T19:42:37.036Z,19.80
2018-12-19T19:45:06.679Z,20.15
2018-12-19T19:47:35.427Z,22.13
2018-12-19T19:50:04.677Z,19.75
2018-12-19T19:52:33.362Z,22.45
2018-12-19T19:55:02.064Z,21.45
2018-12-19T19:57:30.863Z,20.60
2018-12-19T19:59:59.746Z,22.15
2018-12-19T20:02:29.085Z,20.65
2018-12-19T20:04:58.087Z,20.30
2018-12-19T20:07:26.913Z,24.00
2018-12-19T20:09:55.781Z,22.05
2018-12-19T20:12:24.544Z,24.47
2018-12-19T20:14:53.223Z,21.60
2018-12-19T20:17:26.825Z,23.98
2018-12-19T20:19:55.482Z,22.30
2018-12-19T20:22:24.093Z,22.90
2018-12-19T20:24:52.640Z,21.15
2018-12-19T20:27:21.198Z,25.20
2018-12-19T20:29:49.856Z,22.27
2018-12-19T20:32:18.548Z,22.20
2018-12-19T20:34:47.129Z,22.58
2018-12-19T20:37:15.784Z,22.37
2018-12-19T20:39:45.487Z,22.27
2018-12-19T20:42:14.979Z,21.87
2018-12-19T20:44:43.525Z,20.97
2018-12-19T20:47:12.076Z,24.25
2018-12-19T20:49:40.605Z,20.72
2018-12-19T20:52:09.263Z,24.75
2018-12-19T20:54:37.866Z,21.60
2018-12-19T20:57:06.492Z,23.52
2018-12-19T20:59:35.092Z,24.52
2018-12-19T21:02:03.857Z,23.50
2018-12-19T21:04:33.051Z,25.35
2018-12-19T21:07:01.633Z,21.35
2018-12-19T21:09:30.245Z,20.52
2018-12-19T21:11:59.280Z,23.32
2018-12-19T21:14:27.920Z,22.10
2018-12-19T21:17:01.847Z,20.68
2018-12-19T21:19:30.427Z,22.95
2018-12-19T21:21:58.963Z,21.62
2018-12-19T21:24:27.487Z,20.77
2018-12-19T21:26:56.040Z,20.02
2018-12-19T21:29:24.568Z,21.70
2018-12-19T21:31:53.171Z,23.50
2018-12-19T21:34:21.784Z,25.48
2018-12-19T21:36:50.383Z,26.23
2018-12-19T21:39:19.015Z,22.67
2018-12-19T21:41:47.536Z,22.48
2018-12-19T21:44:16.819Z,22.42
2018-12-19T21:46:45.530Z,23.50
2018-12-19T21:49:14.277Z,22.77
2018-12-19T21:51:42.880Z,23.10
2018-12-19T21:54:11.448Z,24.85
2018-12-19T21:56:39.971Z,24.05
2018-12-19T21:59:08.520Z,23.73
2018-12-19T22:01:37.279Z,25.40
2018-12-19T22:04:05.903Z,28.17
2018-12-19T22:06:34.606Z,26.23
2018-12-19T22:09:04.194Z,28.05
2018-12-19T22:11:33.020Z,26.12
2018-12-19T22:14:01.589Z,24.20
2018-12-19T22:16:35.959Z,25.48
2018-12-19T22:19:05.105Z,26.70
2018-12-19T22:21:33.794Z,25.65
2018-12-19T22:24:02.340Z,23.52
2018-12-19T22:26:31.068Z,24.87
2018-12-19T22:28:59.886Z,25.30
2018-12-19T22:31:28.587Z,26.27
2018-12-19T22:33:57.093Z,27.40
2018-12-19T22:36:25.679Z,28.02
2018-12-19T22:38:54.230Z,27.98
2018-12-19T22:41:22.874Z,26.93
2018-12-19T22:43:51.514Z,28.52
2018-12-19T22:46:20.048Z,29.07
2018-12-19T22:48:48.729Z,28.57
2018-12-19T22:51:17.500Z,27.27
2018-12-19T22:53:46.046Z,26.97
2018-12-19T22:56:14.536Z,27.30
2018-12-19T22:58:43.076Z,25.80
2018-12-19T23:01:17.084Z,25.92
2018-12-19T23:03:50.848Z,27.35
2018-12-19T23:06:20.524Z,26.82
2018-12-19T23:08:49.568Z,27.95
2018-12-19T23:11:18.373Z,27.87
2018-12-19T23:13:47.201Z,27.85
2018-12-19T23:16:15.776Z,30.15
2018-12-19T23:18:44.510Z,28.47
2018-12-19T23:21:13.114Z,28.55
2018-12-19T23:23:41.894Z,26.80
2018-12-19T23:26:10.556Z,28.50
2018-12-19T23:28:39.324Z,30.35
2018-12-19T23:31:08.056Z,32.03
2018-12-19T23:33:36.911Z,32.30
2018-12-19T23:36:05.783Z,33.92
2018-12-19T23:38:34.613Z,33.45
2018-12-19T23:41:03.183Z,33.00
2018-12-19T23:43:31.892Z,35.43
2018-12-19T23:46:00.487Z,38.10
2018-12-19T23:48:29.307Z,38.00
2018-12-19T23:50:58.013Z,35.10
2018-12-19T23:53:26.989Z,35.38
2018-12-19T23:55:55.654Z,36.00
2018-12-19T23:58:24.433Z,36.15
